Pioneer Point, California
Current Conditions -  °F | °C
As of 3:56 AM on Friday 19 Dec 2014 (Local Time) from KNID Reporting Station
Clear Clear  
Wind Chill: 31°   Ceiling: Unl
Heat Index: 35°   Visibility: 10mi
Dew Point: 33°   Wind: 5mph
Humidity: 92%   Direction: 160°SSE
Pressure: 30.22"   Gusts: NA
Location:  35.6496°N, 117.375°W
Report Text: KNID 191156Z AUTO 16004KT 10SM CLR 02/01 A3022 RMK AO2 SLP241 T00170006 10050 20017 50001 $
Loading
Personal Weather Stations






























Interactive Weather Map New forecast layout! Learn more

10-Day Weather Forecast

Advertisements
Track Severe Weather on mobile